sensor_id;sensor_type;location;lat;lon;timestamp;temperature;humidity
40023;DHT22;25713;-35.352;149.036;2023-04-01T00:01:44;16.80;78.90
40023;DHT22;25713;-35.352;149.036;2023-04-01T00:04:15;16.80;79.20
40023;DHT22;25713;-35.352;149.036;2023-04-01T00:06:44;16.80;79.60
40023;DHT22;25713;-35.352;149.036;2023-04-01T00:09:14;16.80;79.10
40023;DHT22;25713;-35.352;149.036;2023-04-01T00:11:43;16.80;77.80
40023;DHT22;25713;-35.352;149.036;2023-04-01T00:14:13;16.80;80.30
40023;DHT22;25713;-35.352;149.036;2023-04-01T00:16:42;16.80;79.20
40023;DHT22;25713;-35.352;149.036;2023-04-01T00:19:14;16.90;78.60
40023;DHT22;25713;-35.352;149.036;2023-04-01T00:21:44;16.90;78.00
40023;DHT22;25713;-35.352;149.036;2023-04-01T00:24:13;16.90;79.40
40023;DHT22;25713;-35.352;149.036;2023-04-01T00:26:43;16.80;78.60
40023;DHT22;25713;-35.352;149.036;2023-04-01T00:29:12;16.80;79.80
40023;DHT22;25713;-35.352;149.036;2023-04-01T00:31:41;16.80;79.90
40023;DHT22;25713;-35.352;149.036;2023-04-01T00:34:11;16.90;79.60
40023;DHT22;25713;-35.352;149.036;2023-04-01T00:36:43;16.90;79.30
40023;DHT22;25713;-35.352;149.036;2023-04-01T00:39:12;17.00;79.40
40023;DHT22;25713;-35.352;149.036;2023-04-01T00:41:42;17.00;79.50
40023;DHT22;25713;-35.352;149.036;2023-04-01T00:44:19;17.00;79.50
40023;DHT22;25713;-35.352;149.036;2023-04-01T00:46:49;17.10;79.70
40023;DHT22;25713;-35.352;149.036;2023-04-01T00:49:20;17.00;79.50
40023;DHT22;25713;-35.352;149.036;2023-04-01T00:51:54;17.00;80.20
40023;DHT22;25713;-35.352;149.036;2023-04-01T00:54:25;17.00;80.10
40023;DHT22;25713;-35.352;149.036;2023-04-01T00:56:58;17.10;79.60
40023;DHT22;25713;-35.352;149.036;2023-04-01T00:59:31;17.10;78.60
40023;DHT22;25713;-35.352;149.036;2023-04-01T01:02:02;17.20;78.00
40023;DHT22;25713;-35.352;149.036;2023-04-01T01:04:33;17.30;77.70
40023;DHT22;25713;-35.352;149.036;2023-04-01T01:07:16;17.40;77.10
40023;DHT22;25713;-35.352;149.036;2023-04-01T01:09:55;17.40;78.10
40023;DHT22;25713;-35.352;149.036;2023-04-01T01:12:31;17.40;78.70
40023;DHT22;25713;-35.352;149.036;2023-04-01T01:15:10;17.50;78.60
40023;DHT22;25713;-35.352;149.036;2023-04-01T01:17:51;17.50;77.30
40023;DHT22;25713;-35.352;149.036;2023-04-01T01:20:46;17.40;75.80
40023;DHT22;25713;-35.352;149.036;2023-04-01T01:23:54;17.30;78.10
40023;DHT22;25713;-35.352;149.036;2023-04-01T01:26:44;17.30;79.30
40023;DHT22;25713;-35.352;149.036;2023-04-01T01:29:39;17.20;79.10
40023;DHT22;25713;-35.352;149.036;2023-04-01T01:32:16;17.20;79.70
40023;DHT22;25713;-35.352;149.036;2023-04-01T01:34:51;17.20;79.50
40023;DHT22;25713;-35.352;149.036;2023-04-01T01:37:27;17.20;79.30
40023;DHT22;25713;-35.352;149.036;2023-04-01T01:40:00;17.10;80.10
40023;DHT22;25713;-35.352;149.036;2023-04-01T01:42:34;17.20;80.10
40023;DHT22;25713;-35.352;149.036;2023-04-01T01:45:05;17.10;79.70
40023;DHT22;25713;-35.352;149.036;2023-04-01T01:47:37;17.10;78.30
40023;DHT22;25713;-35.352;149.036;2023-04-01T01:50:08;17.10;79.10
40023;DHT22;25713;-35.352;149.036;2023-04-01T01:52:40;17.10;79.50
40023;DHT22;25713;-35.352;149.036;2023-04-01T01:55:27;17.10;79.20
40023;DHT22;25713;-35.352;149.036;2023-04-01T01:57:59;17.10;78.90
40023;DHT22;25713;-35.352;149.036;2023-04-01T02:00:30;17.10;79.50
40023;DHT22;25713;-35.352;149.036;2023-04-01T02:03:02;17.10;80.10
40023;DHT22;25713;-35.352;149.036;2023-04-01T02:05:32;17.10;80.20
40023;DHT22;25713;-35.352;149.036;2023-04-01T02:08:13;17.10;79.20
40023;DHT22;25713;-35.352;149.036;2023-04-01T02:10:45;17.10;80.20
40023;DHT22;25713;-35.352;149.036;2023-04-01T02:13:21;17.10;79.90
40023;DHT22;25713;-35.352;149.036;2023-04-01T02:15:58;17.10;79.50
40023;DHT22;25713;-35.352;149.036;2023-04-01T02:18:29;17.10;80.60
40023;DHT22;25713;-35.352;149.036;2023-04-01T02:21:00;17.10;79.80
40023;DHT22;25713;-35.352;149.036;2023-04-01T02:23:33;17.10;79.70
40023;DHT22;25713;-35.352;149.036;2023-04-01T02:26:05;17.10;79.00
40023;DHT22;25713;-35.352;149.036;2023-04-01T02:28:38;17.10;79.20
40023;DHT22;25713;-35.352;149.036;2023-04-01T02:31:09;17.10;78.40
40023;DHT22;25713;-35.352;149.036;2023-04-01T02:33:39;17.10;78.50
40023;DHT22;25713;-35.352;149.036;2023-04-01T02:36:12;17.10;79.60
40023;DHT22;25713;-35.352;149.036;2023-04-01T02:38:45;17.10;80.00
40023;DHT22;25713;-35.352;149.036;2023-04-01T02:41:16;17.20;79.70
40023;DHT22;25713;-35.352;149.036;2023-04-01T02:43:45;17.20;79.10
40023;DHT22;25713;-35.352;149.036;2023-04-01T02:46:14;17.20;78.80
40023;DHT22;25713;-35.352;149.036;2023-04-01T02:48:44;17.30;79.40
40023;DHT22;25713;-35.352;149.036;2023-04-01T02:51:13;17.20;79.20
40023;DHT22;25713;-35.352;149.036;2023-04-01T02:53:45;17.20;77.70
40023;DHT22;25713;-35.352;149.036;2023-04-01T02:56:14;17.30;79.20
40023;DHT22;25713;-35.352;149.036;2023-04-01T02:58:43;17.30;79.20
40023;DHT22;25713;-35.352;149.036;2023-04-01T03:01:13;17.30;79.80
40023;DHT22;25713;-35.352;149.036;2023-04-01T03:03:43;17.30;79.70
40023;DHT22;25713;-35.352;149.036;2023-04-01T03:06:13;17.30;79.50
40023;DHT22;25713;-35.352;149.036;2023-04-01T03:08:46;17.30;79.90
40023;DHT22;25713;-35.352;149.036;2023-04-01T03:11:16;17.30;79.80
40023;DHT22;25713;-35.352;149.036;2023-04-01T03:13:46;17.30;79.80
40023;DHT22;25713;-35.352;149.036;2023-04-01T03:16:16;17.30;79.80
40023;DHT22;25713;-35.352;149.036;2023-04-01T03:18:45;17.40;80.00
40023;DHT22;25713;-35.352;149.036;2023-04-01T03:21:16;17.30;79.80
40023;DHT22;25713;-35.352;149.036;2023-04-01T03:23:47;17.30;80.30
40023;DHT22;25713;-35.352;149.036;2023-04-01T03:26:17;17.40;80.40
40023;DHT22;25713;-35.352;149.036;2023-04-01T03:28:47;17.30;80.30
40023;DHT22;25713;-35.352;149.036;2023-04-01T03:31:16;17.40;80.50
40023;DHT22;25713;-35.352;149.036;2023-04-01T03:33:52;17.40;80.80
40023;DHT22;25713;-35.352;149.036;2023-04-01T03:36:21;17.40;80.70
40023;DHT22;25713;-35.352;149.036;2023-04-01T03:38:52;17.40;80.80
40023;DHT22;25713;-35.352;149.036;2023-04-01T03:41:30;17.40;80.80
40023;DHT22;25713;-35.352;149.036;2023-04-01T03:43:59;17.50;80.20
40023;DHT22;25713;-35.352;149.036;2023-04-01T03:46:29;17.50;80.10
40023;DHT22;25713;-35.352;149.036;2023-04-01T03:48:58;17.50;80.40
40023;DHT22;25713;-35.352;149.036;2023-04-01T03:51:28;17.50;77.80
40023;DHT22;25713;-35.352;149.036;2023-04-01T03:54:01;17.50;79.10
40023;DHT22;25713;-35.352;149.036;2023-04-01T03:56:30;17.60;78.90
40023;DHT22;25713;-35.352;149.036;2023-04-01T03:59:01;17.60;76.60
40023;DHT22;25713;-35.352;149.036;2023-04-01T04:01:31;17.60;79.20
40023;DHT22;25713;-35.352;149.036;2023-04-01T04:04:01;17.70;77.90
40023;DHT22;25713;-35.352;149.036;2023-04-01T04:06:30;17.70;78.70
40023;DHT22;25713;-35.352;149.036;2023-04-01T04:09:03;17.80;79.00
40023;DHT22;25713;-35.352;149.036;2023-04-01T04:11:33;17.80;79.00
40023;DHT22;25713;-35.352;149.036;2023-04-01T04:14:03;17.80;78.30
40023;DHT22;25713;-35.352;149.036;2023-04-01T04:16:32;17.80;79.30
40023;DHT22;25713;-35.352;149.036;2023-04-01T04:19:04;17.80;78.30
40023;DHT22;25713;-35.352;149.036;2023-04-01T04:21:34;17.90;78.00
40023;DHT22;25713;-35.352;149.036;2023-04-01T04:24:06;17.90;77.90
40023;DHT22;25713;-35.352;149.036;2023-04-01T04:26:55;17.90;77.20
40023;DHT22;25713;-35.352;149.036;2023-04-01T04:29:24;18.00;78.90
40023;DHT22;25713;-35.352;149.036;2023-04-01T04:31:55;18.00;77.60
40023;DHT22;25713;-35.352;149.036;2023-04-01T04:34:24;18.00;77.50
40023;DHT22;25713;-35.352;149.036;2023-04-01T04:36:54;18.00;78.40
40023;DHT22;25713;-35.352;149.036;2023-04-01T04:39:28;18.00;76.80
40023;DHT22;25713;-35.352;149.036;2023-04-01T04:41:58;18.00;78.20
40023;DHT22;25713;-35.352;149.036;2023-04-01T04:44:28;18.00;77.70
40023;DHT22;25713;-35.352;149.036;2023-04-01T04:46:57;18.10;77.20
40023;DHT22;25713;-35.352;149.036;2023-04-01T04:49:27;18.10;78.90
40023;DHT22;25713;-35.352;149.036;2023-04-01T04:51:56;18.10;79.50
40023;DHT22;25713;-35.352;149.036;2023-04-01T04:54:31;18.10;78.90
40023;DHT22;25713;-35.352;149.036;2023-04-01T04:57:02;18.20;80.40
40023;DHT22;25713;-35.352;149.036;2023-04-01T04:59:35;18.20;80.00
40023;DHT22;25713;-35.352;149.036;2023-04-01T05:02:13;18.20;80.20
40023;DHT22;25713;-35.352;149.036;2023-04-01T05:04:42;18.20;77.40
40023;DHT22;25713;-35.352;149.036;2023-04-01T05:07:13;18.10;75.40
40023;DHT22;25713;-35.352;149.036;2023-04-01T05:09:45;18.10;76.40
40023;DHT22;25713;-35.352;149.036;2023-04-01T05:12:14;18.10;77.30
40023;DHT22;25713;-35.352;149.036;2023-04-01T05:15:10;18.10;76.60
40023;DHT22;25713;-35.352;149.036;2023-04-01T05:17:41;18.00;76.80
40023;DHT22;25713;-35.352;149.036;2023-04-01T05:20:13;18.00;77.30
40023;DHT22;25713;-35.352;149.036;2023-04-01T05:22:42;18.00;77.60
40023;DHT22;25713;-35.352;149.036;2023-04-01T05:25:14;18.00;77.90
40023;DHT22;25713;-35.352;149.036;2023-04-01T05:27:44;18.00;76.80
40023;DHT22;25713;-35.352;149.036;2023-04-01T05:30:13;18.00;77.60
40023;DHT22;25713;-35.352;149.036;2023-04-01T05:33:05;18.00;77.20
40023;DHT22;25713;-35.352;149.036;2023-04-01T05:35:35;18.00;77.10
40023;DHT22;25713;-35.352;149.036;2023-04-01T05:38:05;18.00;78.40
40023;DHT22;25713;-35.352;149.036;2023-04-01T05:40:36;17.90;78.10
40023;DHT22;25713;-35.352;149.036;2023-04-01T05:43:06;17.90;77.70
40023;DHT22;25713;-35.352;149.036;2023-04-01T05:45:35;17.90;78.00
40023;DHT22;25713;-35.352;149.036;2023-04-01T05:48:14;17.90;78.30
40023;DHT22;25713;-35.352;149.036;2023-04-01T05:50:44;17.90;76.80
40023;DHT22;25713;-35.352;149.036;2023-04-01T05:53:14;17.90;79.00
40023;DHT22;25713;-35.352;149.036;2023-04-01T05:55:47;17.90;78.20
40023;DHT22;25713;-35.352;149.036;2023-04-01T05:58:17;17.90;78.90
40023;DHT22;25713;-35.352;149.036;2023-04-01T06:00:49;17.90;77.90
40023;DHT22;25713;-35.352;149.036;2023-04-01T06:03:19;18.00;78.00
40023;DHT22;25713;-35.352;149.036;2023-04-01T06:05:48;18.00;78.20
40023;DHT22;25713;-35.352;149.036;2023-04-01T06:08:18;17.90;78.40
40023;DHT22;25713;-35.352;149.036;2023-04-01T06:11:03;18.00;78.60
40023;DHT22;25713;-35.352;149.036;2023-04-01T06:13:49;17.90;77.90
40023;DHT22;25713;-35.352;149.036;2023-04-01T06:16:26;17.90;77.70
40023;DHT22;25713;-35.352;149.036;2023-04-01T06:19:19;17.90;78.90
40023;DHT22;25713;-35.352;149.036;2023-04-01T06:25:17;17.90;77.40
40023;DHT22;25713;-35.352;149.036;2023-04-01T06:28:03;17.90;77.40
40023;DHT22;25713;-35.352;149.036;2023-04-01T06:30:41;17.80;77.50
40023;DHT22;25713;-35.352;149.036;2023-04-01T06:33:50;17.90;77.30
40023;DHT22;25713;-35.352;149.036;2023-04-01T06:36:41;17.90;78.40
40023;DHT22;25713;-35.352;149.036;2023-04-01T06:39:22;17.80;78.30
40023;DHT22;25713;-35.352;149.036;2023-04-01T06:42:27;17.80;77.20
40023;DHT22;25713;-35.352;149.036;2023-04-01T06:45:16;17.80;78.40
40023;DHT22;25713;-35.352;149.036;2023-04-01T06:48:17;17.80;78.40
40023;DHT22;25713;-35.352;149.036;2023-04-01T06:51:18;17.80;76.80
40023;DHT22;25713;-35.352;149.036;2023-04-01T06:54:11;17.80;77.80
40023;DHT22;25713;-35.352;149.036;2023-04-01T06:57:03;17.80;77.70
40023;DHT22;25713;-35.352;149.036;2023-04-01T06:59:36;17.80;77.40
40023;DHT22;25713;-35.352;149.036;2023-04-01T07:02:18;17.80;78.40
40023;DHT22;25713;-35.352;149.036;2023-04-01T07:04:51;17.80;78.60
40023;DHT22;25713;-35.352;149.036;2023-04-01T07:07:32;17.80;78.80
40023;DHT22;25713;-35.352;149.036;2023-04-01T07:10:10;17.80;79.00
40023;DHT22;25713;-35.352;149.036;2023-04-01T07:13:02;17.80;78.80
40023;DHT22;25713;-35.352;149.036;2023-04-01T07:15:56;17.80;79.00
40023;DHT22;25713;-35.352;149.036;2023-04-01T07:18:37;17.70;78.70
40023;DHT22;25713;-35.352;149.036;2023-04-01T07:21:15;17.80;78.80
40023;DHT22;25713;-35.352;149.036;2023-04-01T07:23:48;17.80;77.30
40023;DHT22;25713;-35.352;149.036;2023-04-01T07:26:29;17.80;79.10
40023;DHT22;25713;-35.352;149.036;2023-04-01T07:29:12;17.80;78.70
40023;DHT22;25713;-35.352;149.036;2023-04-01T07:32:26;17.80;79.10
40023;DHT22;25713;-35.352;149.036;2023-04-01T07:35:13;17.80;79.00
40023;DHT22;25713;-35.352;149.036;2023-04-01T07:37:58;17.80;79.40
40023;DHT22;25713;-35.352;149.036;2023-04-01T07:40:35;17.80;79.70
40023;DHT22;25713;-35.352;149.036;2023-04-01T07:43:33;17.80;79.60
40023;DHT22;25713;-35.352;149.036;2023-04-01T07:46:39;17.80;78.90
40023;DHT22;25713;-35.352;149.036;2023-04-01T07:49:15;17.80;79.20
40023;DHT22;25713;-35.352;149.036;2023-04-01T07:51:53;17.70;78.70
40023;DHT22;25713;-35.352;149.036;2023-04-01T07:54:32;17.70;78.20
40023;DHT22;25713;-35.352;149.036;2023-04-01T07:57:09;17.70;78.40
40023;DHT22;25713;-35.352;149.036;2023-04-01T07:59:58;17.80;78.40
40023;DHT22;25713;-35.352;149.036;2023-04-01T08:03:10;17.70;77.80
40023;DHT22;25713;-35.352;149.036;2023-04-01T08:05:47;17.70;77.50
40023;DHT22;25713;-35.352;149.036;2023-04-01T08:08:31;17.70;77.60
40023;DHT22;25713;-35.352;149.036;2023-04-01T08:11:39;17.70;77.10
40023;DHT22;25713;-35.352;149.036;2023-04-01T08:14:31;17.80;77.60
40023;DHT22;25713;-35.352;149.036;2023-04-01T08:17:30;17.70;77.50
40023;DHT22;25713;-35.352;149.036;2023-04-01T08:20:13;17.70;76.90
40023;DHT22;25713;-35.352;149.036;2023-04-01T08:22:45;17.70;76.30
40023;DHT22;25713;-35.352;149.036;2023-04-01T08:25:30;17.70;76.40
40023;DHT22;25713;-35.352;149.036;2023-04-01T08:28:08;17.70;76.40
40023;DHT22;25713;-35.352;149.036;2023-04-01T08:30:44;17.70;76.60
40023;DHT22;25713;-35.352;149.036;2023-04-01T08:33:21;17.70;76.70
40023;DHT22;25713;-35.352;149.036;2023-04-01T08:36:02;17.70;76.30
40023;DHT22;25713;-35.352;149.036;2023-04-01T08:38:36;17.70;76.60
40023;DHT22;25713;-35.352;149.036;2023-04-01T08:41:26;17.70;76.90
40023;DHT22;25713;-35.352;149.036;2023-04-01T08:48:24;17.70;76.80
40023;DHT22;25713;-35.352;149.036;2023-04-01T08:51:40;17.70;76.60
40023;DHT22;25713;-35.352;149.036;2023-04-01T08:57:39;17.70;77.50
40023;DHT22;25713;-35.352;149.036;2023-04-01T09:00:32;17.70;77.00
40023;DHT22;25713;-35.352;149.036;2023-04-01T09:03:43;17.70;77.20
40023;DHT22;25713;-35.352;149.036;2023-04-01T09:06:34;17.70;77.00
40023;DHT22;25713;-35.352;149.036;2023-04-01T09:09:28;17.70;76.70
40023;DHT22;25713;-35.352;149.036;2023-04-01T09:21:43;17.70;76.10
40023;DHT22;25713;-35.352;149.036;2023-04-01T09:27:27;17.50;75.30
40023;DHT22;25713;-35.352;149.036;2023-04-01T09:30:34;17.50;74.40
40023;DHT22;25713;-35.352;149.036;2023-04-01T09:36:21;17.50;74.40
40023;DHT22;25713;-35.352;149.036;2023-04-01T09:38:57;17.50;75.00
40023;DHT22;25713;-35.352;149.036;2023-04-01T09:41:31;17.40;74.90
40023;DHT22;25713;-35.352;149.036;2023-04-01T09:44:17;17.40;76.10
40023;DHT22;25713;-35.352;149.036;2023-04-01T09:47:16;17.40;75.60
40023;DHT22;25713;-35.352;149.036;2023-04-01T09:50:12;17.40;75.40
40023;DHT22;25713;-35.352;149.036;2023-04-01T09:52:49;17.40;76.20
40023;DHT22;25713;-35.352;149.036;2023-04-01T09:55:52;17.40;75.80
40023;DHT22;25713;-35.352;149.036;2023-04-01T09:58:52;17.30;76.50
40023;DHT22;25713;-35.352;149.036;2023-04-01T10:08:44;17.40;75.30
40023;DHT22;25713;-35.352;149.036;2023-04-01T10:11:45;17.40;75.60
40023;DHT22;25713;-35.352;149.036;2023-04-01T10:14:34;17.40;75.40
40023;DHT22;25713;-35.352;149.036;2023-04-01T10:23:53;17.40;76.00
40023;DHT22;25713;-35.352;149.036;2023-04-01T10:26:50;17.40;75.60
40023;DHT22;25713;-35.352;149.036;2023-04-01T10:30:20;17.40;75.70
40023;DHT22;25713;-35.352;149.036;2023-04-01T10:36:32;17.50;75.90
40023;DHT22;25713;-35.352;149.036;2023-04-01T10:39:29;17.40;75.80
40023;DHT22;25713;-35.352;149.036;2023-04-01T10:58:53;17.40;76.50
40023;DHT22;25713;-35.352;149.036;2023-04-01T11:09:18;17.40;75.50
40023;DHT22;25713;-35.352;149.036;2023-04-01T11:15:24;17.40;75.40
40023;DHT22;25713;-35.352;149.036;2023-04-01T11:21:30;17.40;75.50
40023;DHT22;25713;-35.352;149.036;2023-04-01T11:27:48;17.40;75.80
40023;DHT22;25713;-35.352;149.036;2023-04-01T11:30:27;17.40;76.50
40023;DHT22;25713;-35.352;149.036;2023-04-01T11:33:03;17.40;77.80
40023;DHT22;25713;-35.352;149.036;2023-04-01T11:38:56;17.30;77.80
40023;DHT22;25713;-35.352;149.036;2023-04-01T11:41:51;17.30;77.20
40023;DHT22;25713;-35.352;149.036;2023-04-01T11:44:51;17.40;76.80
40023;DHT22;25713;-35.352;149.036;2023-04-01T11:48:02;17.30;77.30
40023;DHT22;25713;-35.352;149.036;2023-04-01T11:50:47;17.30;77.60
40023;DHT22;25713;-35.352;149.036;2023-04-01T11:53:38;17.30;77.20
40023;DHT22;25713;-35.352;149.036;2023-04-01T11:56:24;17.30;78.20
40023;DHT22;25713;-35.352;149.036;2023-04-01T12:02:09;17.30;78.30
40023;DHT22;25713;-35.352;149.036;2023-04-01T12:04:58;17.30;78.20
40023;DHT22;25713;-35.352;149.036;2023-04-01T12:07:55;17.30;78.00
40023;DHT22;25713;-35.352;149.036;2023-04-01T12:10:37;17.30;78.40
40023;DHT22;25713;-35.352;149.036;2023-04-01T12:13:18;17.30;78.20
40023;DHT22;25713;-35.352;149.036;2023-04-01T12:16:13;17.20;78.20
40023;DHT22;25713;-35.352;149.036;2023-04-01T12:18:50;17.30;78.40
40023;DHT22;25713;-35.352;149.036;2023-04-01T12:21:27;17.20;77.90
40023;DHT22;25713;-35.352;149.036;2023-04-01T12:36:04;17.20;78.10
40023;DHT22;25713;-35.352;149.036;2023-04-01T12:38:47;17.20;78.00
40023;DHT22;25713;-35.352;149.036;2023-04-01T12:41:27;17.10;78.60
40023;DHT22;25713;-35.352;149.036;2023-04-01T12:44:25;17.10;78.00
40023;DHT22;25713;-35.352;149.036;2023-04-01T12:50:15;17.10;77.60
40023;DHT22;25713;-35.352;149.036;2023-04-01T12:52:59;17.10;77.90
40023;DHT22;25713;-35.352;149.036;2023-04-01T12:55:41;17.10;77.60
40023;DHT22;25713;-35.352;149.036;2023-04-01T12:59:06;17.10;78.10
40023;DHT22;25713;-35.352;149.036;2023-04-01T13:04:56;17.10;77.90
40023;DHT22;25713;-35.352;149.036;2023-04-01T13:10:38;17.00;78.20
40023;DHT22;25713;-35.352;149.036;2023-04-01T13:13:34;17.00;78.10
40023;DHT22;25713;-35.352;149.036;2023-04-01T13:16:09;17.00;77.70
40023;DHT22;25713;-35.352;149.036;2023-04-01T13:18:50;17.00;78.10
40023;DHT22;25713;-35.352;149.036;2023-04-01T13:21:32;17.00;78.70
40023;DHT22;25713;-35.352;149.036;2023-04-01T13:24:11;17.00;79.20
40023;DHT22;25713;-35.352;149.036;2023-04-01T13:26:58;17.00;79.60
40023;DHT22;25713;-35.352;149.036;2023-04-01T13:29:34;16.90;77.90
40023;DHT22;25713;-35.352;149.036;2023-04-01T13:32:22;16.90;79.00
40023;DHT22;25713;-35.352;149.036;2023-04-01T13:35:13;16.90;78.50
40023;DHT22;25713;-35.352;149.036;2023-04-01T13:37:57;16.90;78.60
40023;DHT22;25713;-35.352;149.036;2023-04-01T13:40:40;16.80;78.80
40023;DHT22;25713;-35.352;149.036;2023-04-01T13:43:15;16.90;79.60
40023;DHT22;25713;-35.352;149.036;2023-04-01T13:46:03;16.80;79.90
40023;DHT22;25713;-35.352;149.036;2023-04-01T13:48:50;16.80;78.70
40023;DHT22;25713;-35.352;149.036;2023-04-01T13:51:55;16.80;78.20
40023;DHT22;25713;-35.352;149.036;2023-04-01T13:54:47;16.80;80.40
40023;DHT22;25713;-35.352;149.036;2023-04-01T13:57:36;16.80;78.60
40023;DHT22;25713;-35.352;149.036;2023-04-01T14:00:20;16.80;78.40
40023;DHT22;25713;-35.352;149.036;2023-04-01T14:05:53;16.80;79.50
40023;DHT22;25713;-35.352;149.036;2023-04-01T14:08:51;16.80;79.40
40023;DHT22;25713;-35.352;149.036;2023-04-01T14:11:29;16.80;79.30
40023;DHT22;25713;-35.352;149.036;2023-04-01T14:14:05;16.80;79.10
40023;DHT22;25713;-35.352;149.036;2023-04-01T14:20:23;16.80;79.60
40023;DHT22;25713;-35.352;149.036;2023-04-01T14:23:12;16.80;80.30
40023;DHT22;25713;-35.352;149.036;2023-04-01T14:26:00;16.70;79.50
40023;DHT22;25713;-35.352;149.036;2023-04-01T14:28:40;16.70;79.10
40023;DHT22;25713;-35.352;149.036;2023-04-01T14:31:28;16.70;80.30
40023;DHT22;25713;-35.352;149.036;2023-04-01T14:34:11;16.70;79.90
40023;DHT22;25713;-35.352;149.036;2023-04-01T14:37:15;16.70;79.10
40023;DHT22;25713;-35.352;149.036;2023-04-01T14:40:10;16.70;79.80
40023;DHT22;25713;-35.352;149.036;2023-04-01T14:43:04;16.70;80.80
40023;DHT22;25713;-35.352;149.036;2023-04-01T14:45:48;16.70;79.90
40023;DHT22;25713;-35.352;149.036;2023-04-01T14:48:28;16.70;80.00
40023;DHT22;25713;-35.352;149.036;2023-04-01T15:51:56;16.20;82.30
40023;DHT22;25713;-35.352;149.036;2023-04-01T15:54:55;16.20;81.60
40023;DHT22;25713;-35.352;149.036;2023-04-01T15:57:29;16.20;81.10
40023;DHT22;25713;-35.352;149.036;2023-04-01T16:00:18;16.20;80.80
40023;DHT22;25713;-35.352;149.036;2023-04-01T16:02:51;16.20;81.30
40023;DHT22;25713;-35.352;149.036;2023-04-01T16:05:29;16.20;81.00
40023;DHT22;25713;-35.352;149.036;2023-04-01T16:08:15;16.20;81.90
40023;DHT22;25713;-35.352;149.036;2023-04-01T16:10:59;16.20;80.90
40023;DHT22;25713;-35.352;149.036;2023-04-01T16:13:42;16.30;81.70
40023;DHT22;25713;-35.352;149.036;2023-04-01T16:16:25;16.20;80.80
40023;DHT22;25713;-35.352;149.036;2023-04-01T16:22:00;16.30;81.10
40023;DHT22;25713;-35.352;149.036;2023-04-01T16:24:38;16.30;81.90
40023;DHT22;25713;-35.352;149.036;2023-04-01T16:27:12;16.30;82.20
40023;DHT22;25713;-35.352;149.036;2023-04-01T16:29:48;16.30;81.70
40023;DHT22;25713;-35.352;149.036;2023-04-01T16:35:26;16.30;79.80
40023;DHT22;25713;-35.352;149.036;2023-04-01T16:38:05;16.30;80.90
40023;DHT22;25713;-35.352;149.036;2023-04-01T16:40:44;16.30;80.90
40023;DHT22;25713;-35.352;149.036;2023-04-01T16:43:23;16.30;81.20
40023;DHT22;25713;-35.352;149.036;2023-04-01T16:48:58;16.20;80.70
40023;DHT22;25713;-35.352;149.036;2023-04-01T16:51:35;16.30;81.40
40023;DHT22;25713;-35.352;149.036;2023-04-01T16:54:13;16.30;80.10
40023;DHT22;25713;-35.352;149.036;2023-04-01T16:56:47;16.30;80.60
40023;DHT22;25713;-35.352;149.036;2023-04-01T16:59:22;16.30;81.60
40023;DHT22;25713;-35.352;149.036;2023-04-01T17:01:57;16.30;80.90
40023;DHT22;25713;-35.352;149.036;2023-04-01T17:04:34;16.20;81.20
40023;DHT22;25713;-35.352;149.036;2023-04-01T17:07:21;16.20;80.20
40023;DHT22;25713;-35.352;149.036;2023-04-01T17:10:15;16.20;81.20
40023;DHT22;25713;-35.352;149.036;2023-04-01T17:12:58;16.20;81.30
40023;DHT22;25713;-35.352;149.036;2023-04-01T17:15:34;16.20;81.50
40023;DHT22;25713;-35.352;149.036;2023-04-01T17:18:09;16.20;81.00
40023;DHT22;25713;-35.352;149.036;2023-04-01T17:20:46;16.20;80.10
40023;DHT22;25713;-35.352;149.036;2023-04-01T17:23:24;16.10;80.20
40023;DHT22;25713;-35.352;149.036;2023-04-01T17:26:16;16.10;80.90
40023;DHT22;25713;-35.352;149.036;2023-04-01T17:28:52;16.10;81.40
40023;DHT22;25713;-35.352;149.036;2023-04-01T17:31:43;16.10;82.30
40023;DHT22;25713;-35.352;149.036;2023-04-01T17:34:37;16.20;81.30
40023;DHT22;25713;-35.352;149.036;2023-04-01T17:37:25;16.20;81.40
40023;DHT22;25713;-35.352;149.036;2023-04-01T17:40:07;16.10;82.40
40023;DHT22;25713;-35.352;149.036;2023-04-01T17:42:46;16.10;82.60
40023;DHT22;25713;-35.352;149.036;2023-04-01T17:45:24;16.10;82.20
40023;DHT22;25713;-35.352;149.036;2023-04-01T17:48:02;16.10;82.40
40023;DHT22;25713;-35.352;149.036;2023-04-01T17:50:49;16.10;82.40
40023;DHT22;25713;-35.352;149.036;2023-04-01T17:53:31;16.10;83.00
40023;DHT22;25713;-35.352;149.036;2023-04-01T17:56:15;16.10;82.60
40023;DHT22;25713;-35.352;149.036;2023-04-01T17:58:49;16.10;82.40
40023;DHT22;25713;-35.352;149.036;2023-04-01T18:01:22;16.10;82.10
40023;DHT22;25713;-35.352;149.036;2023-04-01T18:04:10;16.10;82.40
40023;DHT22;25713;-35.352;149.036;2023-04-01T18:09:50;16.00;82.50
40023;DHT22;25713;-35.352;149.036;2023-04-01T18:12:31;16.00;81.60
40023;DHT22;25713;-35.352;149.036;2023-04-01T18:15:07;16.00;83.10
40023;DHT22;25713;-35.352;149.036;2023-04-01T18:17:51;16.10;81.80
40023;DHT22;25713;-35.352;149.036;2023-04-01T18:20:37;16.00;82.60
40023;DHT22;25713;-35.352;149.036;2023-04-01T18:23:20;16.00;83.30
40023;DHT22;25713;-35.352;149.036;2023-04-01T18:25:55;16.00;82.30
40023;DHT22;25713;-35.352;149.036;2023-04-01T18:28:36;16.00;82.90
40023;DHT22;25713;-35.352;149.036;2023-04-01T18:31:10;16.00;82.20
40023;DHT22;25713;-35.352;149.036;2023-04-01T18:33:50;16.00;83.20
40023;DHT22;25713;-35.352;149.036;2023-04-01T18:36:33;16.00;83.40
40023;DHT22;25713;-35.352;149.036;2023-04-01T18:39:10;16.00;82.00
40023;DHT22;25713;-35.352;149.036;2023-04-01T18:41:52;16.00;81.80
40023;DHT22;25713;-35.352;149.036;2023-04-01T18:44:36;16.00;82.50
40023;DHT22;25713;-35.352;149.036;2023-04-01T18:47:17;16.00;82.20
40023;DHT22;25713;-35.352;149.036;2023-04-01T18:49:56;15.90;82.90
40023;DHT22;25713;-35.352;149.036;2023-04-01T18:52:33;16.00;82.80
40023;DHT22;25713;-35.352;149.036;2023-04-01T18:58:22;16.00;82.90
40023;DHT22;25713;-35.352;149.036;2023-04-01T19:01:04;15.90;83.20
40023;DHT22;25713;-35.352;149.036;2023-04-01T19:03:38;16.00;82.50
40023;DHT22;25713;-35.352;149.036;2023-04-01T19:06:18;15.90;83.20
40023;DHT22;25713;-35.352;149.036;2023-04-01T19:08:49;15.90;83.30
40023;DHT22;25713;-35.352;149.036;2023-04-01T19:11:26;15.90;84.10
40023;DHT22;25713;-35.352;149.036;2023-04-01T19:14:05;15.90;83.00